createdAt,value
2023-04-12T00:05:22.869Z,9.15
2023-04-12T00:10:48.289Z,8.55
2023-04-12T00:16:16.069Z,9.10
2023-04-12T00:21:41.725Z,7.38
2023-04-12T00:27:07.196Z,7.07
2023-04-12T00:32:31.463Z,8.38
2023-04-12T00:37:55.837Z,8.68
2023-04-12T00:43:27.788Z,7.00
2023-04-12T00:48:51.774Z,9.35
2023-04-12T00:54:18.136Z,12.50
2023-04-12T00:59:44.709Z,11.05
2023-04-12T01:05:14.713Z,11.60
2023-04-12T01:16:10.288Z,9.95
2023-04-12T01:21:42.000Z,14.50
2023-04-12T01:27:11.397Z,8.02
2023-04-12T01:38:04.446Z,8.98
2023-04-12T01:43:27.476Z,8.82
2023-04-12T01:48:52.083Z,8.68
2023-04-12T01:54:20.459Z,4.65
2023-04-12T01:59:44.562Z,6.65
2023-04-12T02:05:08.072Z,7.15
2023-04-12T02:10:32.946Z,7.50
2023-04-12T02:15:57.142Z,5.28
2023-04-12T02:21:22.082Z,10.07
2023-04-12T02:26:49.766Z,10.88
2023-04-12T02:32:17.495Z,14.10
2023-04-12T02:37:43.935Z,14.57
2023-04-12T02:43:09.594Z,17.17
2023-04-12T02:48:38.928Z,17.38
2023-04-12T02:54:03.229Z,11.73
2023-04-12T02:59:42.236Z,11.77
2023-04-12T03:05:25.180Z,13.82
2023-04-12T03:10:49.435Z,7.05
2023-04-12T03:16:26.158Z,8.38
2023-04-12T03:21:59.814Z,6.97
2023-04-12T03:27:23.544Z,7.72
2023-04-12T03:32:50.947Z,5.47
2023-04-12T03:38:16.200Z,6.68
2023-04-12T03:43:42.645Z,8.20
2023-04-12T03:49:16.544Z,8.02
2023-04-12T03:54:45.651Z,8.45
2023-04-12T04:00:14.679Z,9.10
2023-04-12T04:06:04.696Z,8.07
2023-04-12T04:11:29.620Z,6.63
2023-04-12T04:17:00.662Z,8.35
2023-04-12T04:22:26.099Z,7.95
2023-04-12T04:27:52.086Z,7.30
2023-04-12T04:33:18.701Z,8.50
2023-04-12T04:38:44.814Z,10.35
2023-04-12T04:44:29.097Z,8.60
2023-04-12T04:49:53.763Z,14.68
2023-04-12T04:55:24.882Z,11.60
2023-04-12T05:00:49.103Z,13.43
2023-04-12T05:06:13.580Z,8.30
2023-04-12T05:11:38.795Z,13.77
2023-04-12T05:17:08.567Z,7.68
2023-04-12T05:22:33.014Z,8.50
2023-04-12T05:27:58.440Z,10.77
2023-04-12T05:33:23.694Z,11.43
2023-04-12T05:38:47.706Z,18.70
2023-04-12T05:44:13.678Z,10.23
2023-04-12T05:49:38.559Z,15.10
2023-04-12T05:55:06.951Z,12.80
2023-04-12T06:00:34.659Z,13.02
2023-04-12T06:05:59.808Z,12.70
2023-04-12T06:11:24.685Z,12.43
2023-04-12T06:16:51.340Z,11.63
2023-04-12T06:22:15.016Z,8.90
2023-04-12T06:27:41.015Z,10.23
2023-04-12T06:33:07.199Z,7.75
2023-04-12T06:38:36.043Z,11.80
2023-04-12T06:43:59.630Z,8.70
2023-04-12T06:49:24.428Z,13.02
2023-04-12T06:54:47.853Z,8.75
2023-04-12T07:00:11.876Z,9.98
2023-04-12T07:05:38.547Z,9.60
2023-04-12T07:11:14.701Z,12.77
2023-04-12T07:16:44.838Z,6.80
2023-04-12T07:22:13.667Z,9.98
2023-04-12T07:27:37.884Z,9.23
2023-04-12T07:33:16.228Z,10.68
2023-04-12T07:38:46.148Z,9.07
2023-04-12T07:44:10.035Z,10.68
2023-04-12T07:49:34.637Z,7.72
2023-04-12T07:55:00.625Z,9.65
2023-04-12T08:00:24.625Z,7.35
2023-04-12T08:05:53.356Z,13.77
2023-04-12T08:11:19.243Z,8.07
2023-04-12T08:16:45.198Z,8.52
2023-04-12T08:22:10.363Z,8.43
2023-04-12T08:27:40.486Z,7.00
2023-04-12T08:33:07.407Z,5.55
2023-04-12T08:38:44.764Z,6.97
2023-04-12T08:44:14.074Z,5.95
2023-04-12T08:49:37.900Z,11.05
2023-04-12T08:55:03.066Z,5.65
2023-04-12T09:00:28.251Z,10.02
2023-04-12T09:05:53.364Z,8.68
2023-04-12T09:11:22.628Z,5.72
2023-04-12T09:16:48.065Z,7.00
2023-04-12T09:22:12.690Z,10.13
2023-04-12T09:27:47.260Z,6.10
2023-04-12T09:33:13.722Z,8.88
2023-04-12T09:38:39.489Z,5.60
2023-04-12T09:44:03.798Z,10.25
2023-04-12T09:49:40.421Z,7.45
2023-04-12T09:55:04.398Z,7.05
2023-04-12T10:00:28.002Z,7.90
2023-04-12T10:05:53.217Z,7.85
2023-04-12T10:11:17.469Z,9.43
2023-04-12T10:16:41.817Z,10.68
2023-04-12T10:22:08.516Z,9.35
2023-04-12T10:27:32.985Z,10.38
2023-04-12T10:33:18.467Z,8.25
2023-04-12T10:38:48.588Z,12.23
2023-04-12T10:44:25.714Z,11.85
2023-04-12T10:50:08.885Z,12.05
2023-04-12T10:55:38.468Z,13.98
2023-04-12T11:01:11.953Z,14.05
2023-04-12T11:07:07.363Z,17.58
2023-04-12T11:12:51.327Z,13.23
2023-04-12T11:18:15.736Z,13.77
2023-04-12T11:23:41.293Z,13.60
2023-04-12T11:29:09.596Z,15.40
2023-04-12T11:34:35.563Z,11.95
2023-04-12T11:40:02.005Z,12.57
2023-04-12T11:45:29.737Z,10.63
2023-04-12T11:51:07.879Z,9.90
2023-04-12T11:56:35.729Z,14.85
2023-04-12T12:02:10.853Z,9.65
2023-04-12T12:07:47.272Z,11.93
2023-04-12T12:13:12.774Z,16.92
2023-04-12T12:18:42.117Z,17.92
2023-04-12T12:24:06.573Z,11.98
2023-04-12T12:29:36.729Z,15.00
2023-04-12T12:35:05.022Z,16.35
2023-04-12T12:40:32.761Z,15.68
2023-04-12T12:45:57.426Z,17.48
2023-04-12T12:51:34.283Z,11.83
2023-04-12T12:56:58.860Z,9.88
2023-04-12T13:02:23.573Z,16.85
2023-04-12T13:07:49.463Z,14.10
2023-04-12T13:13:15.437Z,18.15
2023-04-12T13:18:39.362Z,9.52
2023-04-12T13:24:06.428Z,9.80
2023-04-12T13:29:31.029Z,31.80
2023-04-12T13:34:54.971Z,17.80
2023-04-12T13:40:21.529Z,18.73
2023-04-12T13:45:45.825Z,11.18
2023-04-12T13:51:09.371Z,15.23
2023-04-12T13:56:37.751Z,20.83
2023-04-12T14:02:03.231Z,21.60
2023-04-12T14:07:29.500Z,26.88
2023-04-12T14:12:54.864Z,23.30
2023-04-12T14:18:18.589Z,15.85
2023-04-12T14:23:42.583Z,16.67
2023-04-12T14:29:08.005Z,18.42
2023-04-12T14:34:34.656Z,19.73
2023-04-12T14:39:58.753Z,16.02
2023-04-12T14:45:24.508Z,20.05
2023-04-12T14:50:48.304Z,16.77
2023-04-12T14:56:23.802Z,17.50
2023-04-12T15:01:52.009Z,11.80
2023-04-12T15:12:42.710Z,17.73
2023-04-12T15:18:10.588Z,15.68
2023-04-12T15:23:34.670Z,15.45
2023-04-12T15:29:00.044Z,16.73
2023-04-12T15:34:26.053Z,12.50
2023-04-12T15:39:50.515Z,14.57
2023-04-12T15:45:15.209Z,12.68
2023-04-12T15:50:40.646Z,14.48
2023-04-12T15:56:05.348Z,11.02
2023-04-12T16:01:29.421Z,14.50
2023-04-12T16:06:55.057Z,15.15
2023-04-12T16:12:19.702Z,19.23
2023-04-12T16:17:43.819Z,16.63
2023-04-12T16:23:09.840Z,14.68
2023-04-12T16:28:34.603Z,12.50
2023-04-12T16:33:58.996Z,11.05
2023-04-12T16:39:25.883Z,14.60
2023-04-12T16:44:50.097Z,14.68
2023-04-12T16:50:15.874Z,16.20
2023-04-12T16:55:44.063Z,11.43
2023-04-12T17:01:08.004Z,6.83
2023-04-12T17:06:33.980Z,13.43
2023-04-12T17:11:59.194Z,10.60
2023-04-12T17:17:23.061Z,13.35
2023-04-12T17:22:48.280Z,18.23
2023-04-12T17:28:13.424Z,10.20
2023-04-12T17:33:38.020Z,13.32
2023-04-12T17:39:04.781Z,12.27
2023-04-12T17:44:30.025Z,19.08
2023-04-12T17:49:55.734Z,17.73
2023-04-12T17:55:23.604Z,12.00
2023-04-12T18:00:51.832Z,10.15
2023-04-12T18:06:20.531Z,12.23
2023-04-12T18:11:44.938Z,9.00
2023-04-12T18:17:11.434Z,7.28
2023-04-12T18:22:36.461Z,9.75
2023-04-12T18:28:00.475Z,10.63
2023-04-12T18:33:27.763Z,11.77
2023-04-12T18:38:52.732Z,10.20
2023-04-12T18:44:19.916Z,8.07
2023-04-12T18:49:49.883Z,8.32
2023-04-12T18:55:14.336Z,11.30
2023-04-12T19:00:39.016Z,12.48
2023-04-12T19:06:04.934Z,10.30
2023-04-12T19:11:29.180Z,10.50
2023-04-12T19:16:53.831Z,10.70
2023-04-12T19:22:21.111Z,13.32
2023-04-12T19:27:45.388Z,18.92
2023-04-12T19:33:09.509Z,19.77
2023-04-12T19:38:35.084Z,14.20
2023-04-12T19:43:59.569Z,25.58
2023-04-12T19:49:24.234Z,14.35
2023-04-12T19:54:49.939Z,14.05
2023-04-12T20:00:19.724Z,15.13
2023-04-12T20:05:47.880Z,11.60
2023-04-12T20:11:17.612Z,16.17
2023-04-12T20:16:42.911Z,11.93
2023-04-12T20:22:07.131Z,12.57
2023-04-12T20:27:32.908Z,9.45
2023-04-12T20:32:57.351Z,9.68
2023-04-12T20:38:23.222Z,11.57
2023-04-12T20:43:53.388Z,12.05
2023-04-12T20:49:17.539Z,12.52
2023-04-12T20:54:41.726Z,10.23
2023-04-12T21:00:17.603Z,8.05
2023-04-12T21:05:43.259Z,9.45
2023-04-12T21:11:09.286Z,9.10
2023-04-12T21:16:38.845Z,8.52
2023-04-12T21:22:03.158Z,15.50
2023-04-12T21:27:27.631Z,11.23
2023-04-12T21:32:53.871Z,13.60
2023-04-12T21:38:18.198Z,7.90
2023-04-12T21:43:47.570Z,11.95
2023-04-12T21:49:13.952Z,12.50
2023-04-12T21:54:39.100Z,10.55
2023-04-12T22:00:05.718Z,8.38
2023-04-12T22:05:39.847Z,13.45
2023-04-12T22:11:05.609Z,14.65
2023-04-12T22:16:29.738Z,12.10
2023-04-12T22:21:56.605Z,17.23
2023-04-12T22:27:21.363Z,10.73
2023-04-12T22:32:46.458Z,13.93
2023-04-12T22:38:13.851Z,14.15
2023-04-12T22:43:42.102Z,18.05
2023-04-12T22:49:07.241Z,15.30
2023-04-12T22:54:34.003Z,18.02
2023-04-12T22:59:59.197Z,21.00
2023-04-12T23:05:25.084Z,24.40
2023-04-12T23:10:51.144Z,31.00
2023-04-12T23:16:16.926Z,24.80
2023-04-12T23:21:41.209Z,30.85
2023-04-12T23:27:06.860Z,28.33
2023-04-12T23:32:31.824Z,31.08
2023-04-12T23:37:57.164Z,33.53
2023-04-12T23:43:24.797Z,28.60
2023-04-12T23:48:49.586Z,12.45
2023-04-12T23:54:15.624Z,7.43
2023-04-12T23:59:40.026Z,5.53
